createdAt,value
2023-03-16T00:02:01.272Z,10.05
2023-03-16T00:04:14.374Z,10.07
2023-03-16T00:06:27.310Z,10.06
2023-03-16T00:08:40.551Z,10.05
2023-03-16T00:10:55.371Z,10.05
2023-03-16T00:13:08.300Z,10.06
2023-03-16T00:15:21.241Z,10.06
2023-03-16T00:17:36.051Z,10.03
2023-03-16T00:19:51.236Z,9.98
2023-03-16T00:22:04.261Z,9.94
2023-03-16T00:24:19.438Z,9.93
2023-03-16T00:26:33.163Z,9.86
2023-03-16T00:28:46.372Z,9.80
2023-03-16T00:31:00.484Z,9.74
2023-03-16T00:33:13.427Z,9.68
2023-03-16T00:35:26.561Z,9.67
2023-03-16T00:37:40.684Z,9.65
2023-03-16T00:39:54.147Z,9.62
2023-03-16T00:42:07.104Z,9.61
2023-03-16T00:44:20.125Z,9.57
2023-03-16T00:46:33.089Z,9.55
2023-03-16T00:48:47.570Z,9.48
2023-03-16T00:51:00.886Z,9.42
2023-03-16T00:53:14.083Z,9.39
2023-03-16T00:55:28.428Z,9.37
2023-03-16T00:57:42.226Z,9.32
2023-03-16T00:59:55.530Z,9.30
2023-03-16T01:02:10.847Z,9.27
2023-03-16T01:04:24.305Z,9.23
2023-03-16T01:06:39.889Z,9.17
2023-03-16T01:08:54.014Z,9.14
2023-03-16T01:11:17.632Z,9.09
2023-03-16T01:13:30.523Z,9.03
2023-03-16T01:15:44.187Z,9.01
2023-03-16T01:17:58.294Z,8.94
2023-03-16T01:20:16.674Z,8.88
2023-03-16T01:22:30.405Z,8.84
2023-03-16T01:24:43.715Z,8.79
2023-03-16T01:26:57.591Z,8.74
2023-03-16T01:29:10.515Z,8.69
2023-03-16T01:31:24.068Z,8.64
2023-03-16T01:33:37.414Z,8.61
2023-03-16T01:36:00.755Z,8.59
2023-03-16T01:38:17.759Z,8.53
2023-03-16T01:40:32.595Z,8.50
2023-03-16T01:42:51.778Z,8.50
2023-03-16T01:47:39.232Z,8.49
2023-03-16T01:50:00.760Z,8.47
2023-03-16T01:52:22.433Z,8.41
2023-03-16T01:54:38.936Z,8.37
2023-03-16T01:56:59.227Z,8.33
2023-03-16T01:59:17.920Z,8.29
2023-03-16T02:01:32.606Z,8.25
2023-03-16T02:03:46.996Z,8.22
2023-03-16T02:06:09.914Z,8.18
2023-03-16T02:08:27.954Z,8.15
2023-03-16T02:10:43.862Z,8.10
2023-03-16T02:12:59.175Z,8.05
2023-03-16T02:15:16.336Z,8.02
2023-03-16T02:17:32.197Z,7.98
2023-03-16T02:19:57.076Z,7.95
2023-03-16T02:22:12.457Z,7.90
2023-03-16T02:24:25.629Z,7.85
2023-03-16T02:26:46.531Z,7.80
2023-03-16T02:29:20.869Z,7.75
2023-03-16T02:31:35.519Z,7.69
2023-03-16T02:33:50.992Z,7.64
2023-03-16T02:36:04.969Z,7.59
2023-03-16T02:38:17.915Z,7.54
2023-03-16T02:40:37.709Z,7.48
2023-03-16T02:42:57.496Z,7.42
2023-03-16T02:45:16.086Z,7.36
2023-03-16T02:47:37.472Z,7.30
2023-03-16T02:49:51.957Z,7.23
2023-03-16T02:52:05.695Z,7.17
2023-03-16T02:54:19.068Z,7.10
2023-03-16T02:56:32.167Z,7.01
2023-03-16T02:58:45.514Z,6.92
2023-03-16T03:01:02.625Z,6.83
2023-03-16T03:03:15.973Z,6.75
2023-03-16T03:05:29.055Z,6.67
2023-03-16T03:07:43.226Z,6.62
2023-03-16T03:09:56.314Z,6.56
2023-03-16T03:12:10.266Z,6.50
2023-03-16T03:14:23.494Z,6.43
2023-03-16T03:16:37.434Z,6.36
2023-03-16T03:18:50.974Z,6.30
2023-03-16T03:21:04.496Z,6.24
2023-03-16T03:23:18.406Z,6.17
2023-03-16T03:25:31.766Z,6.09
2023-03-16T03:27:45.618Z,6.04
2023-03-16T03:30:01.726Z,6.00
2023-03-16T03:32:16.117Z,5.96
2023-03-16T03:34:29.661Z,5.91
2023-03-16T03:36:44.513Z,5.87
2023-03-16T03:38:57.787Z,5.82
2023-03-16T03:41:11.365Z,5.78
2023-03-16T03:43:25.397Z,5.72
2023-03-16T03:45:38.684Z,5.67
2023-03-16T03:47:52.086Z,5.60
2023-03-16T03:50:06.457Z,5.56
2023-03-16T03:52:20.718Z,5.53
2023-03-16T03:54:45.568Z,5.48
2023-03-16T03:57:21.931Z,5.40
2023-03-16T03:59:45.124Z,5.34
2023-03-16T04:02:39.973Z,5.29
2023-03-16T04:05:21.105Z,5.23
2023-03-16T04:07:49.724Z,5.17
2023-03-16T04:10:17.896Z,5.14
2023-03-16T04:12:33.975Z,5.12
2023-03-16T04:15:06.484Z,5.11
2023-03-16T04:17:35.484Z,5.08
2023-03-16T04:20:08.823Z,5.06
2023-03-16T04:22:35.892Z,5.05
2023-03-16T04:24:58.763Z,5.01
2023-03-16T04:27:32.604Z,4.99
2023-03-16T04:30:10.594Z,4.99
2023-03-16T04:32:35.481Z,4.98
2023-03-16T04:35:15.035Z,4.93
2023-03-16T04:37:41.306Z,4.88
2023-03-16T04:40:11.337Z,4.83
2023-03-16T04:42:26.117Z,4.80
2023-03-16T04:44:45.417Z,4.77
2023-03-16T04:47:00.543Z,4.72
2023-03-16T04:49:20.515Z,4.69
2023-03-16T04:51:34.987Z,4.66
2023-03-16T04:53:53.786Z,4.64
2023-03-16T04:56:20.608Z,4.62
2023-03-16T04:58:36.159Z,4.58
2023-03-16T05:00:52.592Z,4.54
2023-03-16T05:03:15.685Z,4.49
2023-03-16T05:05:29.210Z,4.45
2023-03-16T05:07:42.723Z,4.43
2023-03-16T05:09:55.954Z,4.40
2023-03-16T05:12:09.475Z,4.37
2023-03-16T05:14:29.240Z,4.33
2023-03-16T05:16:54.655Z,4.29
2023-03-16T05:19:07.916Z,4.24
2023-03-16T05:21:23.985Z,4.22
2023-03-16T05:23:43.064Z,4.20
2023-03-16T05:25:57.643Z,4.18
2023-03-16T05:28:11.227Z,4.15
2023-03-16T05:30:32.555Z,4.09
2023-03-16T05:32:48.823Z,4.07
2023-03-16T05:35:06.676Z,4.06
2023-03-16T05:37:20.298Z,4.03
2023-03-16T05:39:33.927Z,3.97
2023-03-16T05:41:47.587Z,3.93
2023-03-16T05:44:10.321Z,3.88
2023-03-16T05:46:46.977Z,3.83
2023-03-16T05:49:00.213Z,3.81
2023-03-16T05:51:16.709Z,3.78
2023-03-16T05:53:32.891Z,3.75
2023-03-16T05:55:58.118Z,3.73
2023-03-16T05:58:11.489Z,3.71
2023-03-16T06:00:35.668Z,3.69
2023-03-16T06:03:04.473Z,3.67
2023-03-16T06:05:20.375Z,3.66
2023-03-16T06:07:35.014Z,3.63
2023-03-16T06:09:52.141Z,3.60
2023-03-16T06:12:08.542Z,3.58
2023-03-16T06:14:24.593Z,3.57
2023-03-16T06:16:44.248Z,3.55
2023-03-16T06:19:14.714Z,3.53
2023-03-16T06:21:42.807Z,3.50
2023-03-16T06:23:57.850Z,3.44
2023-03-16T06:26:13.951Z,3.40
2023-03-16T06:28:28.830Z,3.35
2023-03-16T06:31:00.552Z,3.32
2023-03-16T06:34:11.446Z,3.30
2023-03-16T06:36:59.287Z,3.28
2023-03-16T06:39:13.213Z,3.26
2023-03-16T06:41:28.370Z,3.25
2023-03-16T06:43:42.009Z,3.22
2023-03-16T06:45:55.659Z,3.20
2023-03-16T06:48:11.234Z,3.17
2023-03-16T06:50:24.863Z,3.15
2023-03-16T06:52:37.683Z,3.15
2023-03-16T06:54:50.935Z,3.15
2023-03-16T06:57:05.773Z,3.14
2023-03-16T06:59:19.493Z,3.13
2023-03-16T07:01:32.975Z,3.12
2023-03-16T07:03:47.477Z,3.09
2023-03-16T07:06:10.002Z,3.06
2023-03-16T07:08:23.132Z,3.02
2023-03-16T07:10:36.057Z,2.99
2023-03-16T07:12:56.780Z,2.97
2023-03-16T07:15:11.346Z,2.95
2023-03-16T07:17:24.856Z,2.92
2023-03-16T07:19:38.660Z,2.90
2023-03-16T07:21:52.800Z,2.88
2023-03-16T07:24:11.479Z,2.86
2023-03-16T07:26:37.977Z,2.84
2023-03-16T07:28:51.838Z,2.82
2023-03-16T07:31:17.909Z,2.81
2023-03-16T07:33:31.916Z,2.78
2023-03-16T07:35:45.118Z,2.77
2023-03-16T07:38:12.297Z,2.75
2023-03-16T07:40:27.248Z,2.75
2023-03-16T07:42:45.265Z,2.75
2023-03-16T07:45:13.556Z,2.74
2023-03-16T07:47:27.114Z,2.72
2023-03-16T07:49:42.595Z,2.70
2023-03-16T07:52:01.671Z,2.67
2023-03-16T07:54:40.428Z,2.64
2023-03-16T07:56:53.693Z,2.62
2023-03-16T07:59:20.777Z,2.61
2023-03-16T08:01:40.715Z,2.61
2023-03-16T08:03:54.716Z,2.60
2023-03-16T08:06:20.295Z,2.56
2023-03-16T08:08:33.935Z,2.54
2023-03-16T08:10:50.548Z,2.50
2023-03-16T08:13:11.755Z,2.46
2023-03-16T08:15:27.936Z,2.44
2023-03-16T08:17:45.598Z,2.41
2023-03-16T08:20:11.564Z,2.41
2023-03-16T08:22:25.528Z,2.40
2023-03-16T08:24:51.669Z,2.39
2023-03-16T08:27:05.847Z,2.37
2023-03-16T08:29:20.360Z,2.36
2023-03-16T08:31:36.232Z,2.35
2023-03-16T08:34:12.470Z,2.33
2023-03-16T08:36:29.672Z,2.32
2023-03-16T08:38:45.371Z,2.32
2023-03-16T08:41:01.980Z,2.32
2023-03-16T08:43:15.259Z,2.32
2023-03-16T08:45:29.083Z,2.31
2023-03-16T08:47:41.988Z,2.31
2023-03-16T08:49:55.024Z,2.31
2023-03-16T08:52:08.728Z,2.30
2023-03-16T08:54:21.896Z,2.29
2023-03-16T08:56:35.210Z,2.29
2023-03-16T08:58:50.533Z,2.28
2023-03-16T09:01:04.992Z,2.27
2023-03-16T09:03:17.847Z,2.26
2023-03-16T09:05:31.852Z,2.24
2023-03-16T09:07:45.822Z,2.23
2023-03-16T09:09:59.856Z,2.22
2023-03-16T09:12:15.096Z,2.20
2023-03-16T09:14:28.032Z,2.19
2023-03-16T09:16:41.629Z,2.18
2023-03-16T09:18:54.875Z,2.16
2023-03-16T09:21:11.565Z,2.16
2023-03-16T09:23:25.055Z,2.15
2023-03-16T09:25:38.549Z,2.14
2023-03-16T09:27:51.997Z,2.13
2023-03-16T09:30:06.195Z,2.12
2023-03-16T09:32:19.642Z,2.10
2023-03-16T09:34:33.500Z,2.07
2023-03-16T09:36:47.705Z,2.05
2023-03-16T09:39:00.913Z,2.01
2023-03-16T09:41:27.168Z,1.99
2023-03-16T09:43:58.512Z,1.98
2023-03-16T09:46:17.663Z,1.95
2023-03-16T09:48:34.069Z,1.93
2023-03-16T09:50:49.756Z,1.92
2023-03-16T09:53:12.101Z,1.90
2023-03-16T09:55:34.436Z,1.90
2023-03-16T09:57:50.026Z,1.90
2023-03-16T10:00:11.595Z,1.89
2023-03-16T10:02:44.352Z,1.88
2023-03-16T10:05:10.821Z,1.88
2023-03-16T10:07:34.557Z,1.89
2023-03-16T10:09:56.124Z,1.91
2023-03-16T10:12:11.778Z,1.91
2023-03-16T10:14:31.135Z,1.92
2023-03-16T10:16:51.674Z,1.93
2023-03-16T10:19:13.075Z,1.93
2023-03-16T10:21:29.896Z,1.94
2023-03-16T10:23:43.476Z,1.94
2023-03-16T10:25:57.625Z,1.93
2023-03-16T10:28:11.181Z,1.93
2023-03-16T10:30:31.165Z,1.95
2023-03-16T10:32:44.289Z,1.94
2023-03-16T10:35:02.320Z,1.94
2023-03-16T10:37:18.985Z,1.94
2023-03-16T10:39:44.128Z,1.93
2023-03-16T10:42:05.252Z,1.91
2023-03-16T10:44:20.114Z,1.89
2023-03-16T10:46:39.135Z,1.87
2023-03-16T10:49:02.539Z,1.85
2023-03-16T10:51:21.260Z,1.84
2023-03-16T10:53:38.613Z,1.82
2023-03-16T10:55:53.961Z,1.82
2023-03-16T10:58:07.291Z,1.81
2023-03-16T11:00:25.134Z,1.78
2023-03-16T11:02:40.477Z,1.75
2023-03-16T11:04:54.631Z,1.72
2023-03-16T11:07:11.130Z,1.70
2023-03-16T11:09:29.987Z,1.67
2023-03-16T11:11:49.918Z,1.66
2023-03-16T11:14:07.699Z,1.64
2023-03-16T11:16:29.169Z,1.62
2023-03-16T11:18:47.305Z,1.56
2023-03-16T11:21:01.785Z,1.52
2023-03-16T11:23:20.035Z,1.48
2023-03-16T11:25:37.965Z,1.45
2023-03-16T11:27:57.160Z,1.44
2023-03-16T11:30:17.800Z,1.45
2023-03-16T11:32:37.252Z,1.48
2023-03-16T11:34:51.307Z,1.50
2023-03-16T11:37:14.587Z,1.52
2023-03-16T11:39:41.643Z,1.56
2023-03-16T11:42:05.480Z,1.59
2023-03-16T11:44:26.616Z,1.60
2023-03-16T11:46:44.956Z,1.62
2023-03-16T11:49:29.727Z,1.64
2023-03-16T11:51:56.385Z,1.67
2023-03-16T11:54:21.300Z,1.70
2023-03-16T11:56:39.459Z,1.72
2023-03-16T11:59:20.379Z,1.72
2023-03-16T12:01:57.944Z,1.70
2023-03-16T12:04:38.241Z,1.68
2023-03-16T12:07:06.567Z,1.64
2023-03-16T12:09:48.485Z,1.60
2023-03-16T12:12:05.919Z,1.54
2023-03-16T12:14:27.846Z,1.49
2023-03-16T12:16:49.948Z,1.43
2023-03-16T12:19:06.586Z,1.38
2023-03-16T12:21:24.202Z,1.35
2023-03-16T12:23:41.604Z,1.34
2023-03-16T12:25:56.362Z,1.32
2023-03-16T12:28:15.266Z,1.31
2023-03-16T12:30:38.834Z,1.28
2023-03-16T12:32:58.750Z,1.26
2023-03-16T12:35:20.288Z,1.24
2023-03-16T12:37:44.869Z,1.22
2023-03-16T12:40:13.580Z,1.20
2023-03-16T12:42:43.733Z,1.18
2023-03-16T12:45:06.108Z,1.17
2023-03-16T12:47:30.221Z,1.15
2023-03-16T12:49:44.332Z,1.12
2023-03-16T12:52:05.964Z,1.09
2023-03-16T12:54:27.725Z,1.06
2023-03-16T12:56:48.771Z,1.05
2023-03-16T12:59:03.480Z,1.01
2023-03-16T13:01:18.211Z,0.98
2023-03-16T13:03:32.443Z,0.96
2023-03-16T13:05:54.434Z,0.93
2023-03-16T13:08:17.688Z,0.91
2023-03-16T13:10:32.475Z,0.88
2023-03-16T13:12:47.435Z,0.86
2023-03-16T13:15:01.367Z,0.84
2023-03-16T13:17:30.510Z,0.81
2023-03-16T13:19:46.290Z,0.78
2023-03-16T13:22:22.585Z,0.78
2023-03-16T13:24:43.076Z,0.78
2023-03-16T13:27:02.342Z,0.78
2023-03-16T13:29:28.284Z,0.77
2023-03-16T13:31:44.884Z,0.76
2023-03-16T13:34:01.251Z,0.75
2023-03-16T13:36:16.627Z,0.73
2023-03-16T13:38:32.078Z,0.74
2023-03-16T13:40:51.386Z,0.74
2023-03-16T13:43:05.371Z,0.74
2023-03-16T13:45:23.037Z,0.73
2023-03-16T13:47:36.507Z,0.73
2023-03-16T13:49:54.528Z,0.72
2023-03-16T13:52:09.588Z,0.71
2023-03-16T13:54:29.288Z,0.70
2023-03-16T13:56:42.717Z,0.68
2023-03-16T13:58:59.126Z,0.67
2023-03-16T14:01:23.557Z,0.66
2023-03-16T14:03:40.617Z,0.65
2023-03-16T14:05:54.931Z,0.63
2023-03-16T14:08:17.960Z,0.62
2023-03-16T14:10:35.423Z,0.62
2023-03-16T14:12:56.916Z,0.62
2023-03-16T14:15:09.050Z,0.62
2023-03-16T14:17:24.420Z,0.62
2023-03-16T14:19:43.581Z,0.61
2023-03-16T14:21:57.180Z,0.61
2023-03-16T14:24:21.859Z,0.61
2023-03-16T14:26:46.836Z,0.62
2023-03-16T14:29:09.840Z,0.63
2023-03-16T14:31:25.583Z,0.63
2023-03-16T14:33:42.501Z,0.63
2023-03-16T14:36:01.553Z,0.61
2023-03-16T14:38:37.360Z,0.61
2023-03-16T14:40:59.538Z,0.61
2023-03-16T14:43:13.950Z,0.62
2023-03-16T14:45:30.460Z,0.62
2023-03-16T14:47:46.543Z,0.62
2023-03-16T14:50:00.899Z,0.61
2023-03-16T14:52:23.590Z,0.61
2023-03-16T14:54:34.630Z,0.62
2023-03-16T14:56:51.791Z,0.61
2023-03-16T14:59:05.280Z,0.61
2023-03-16T15:01:22.218Z,0.62
2023-03-16T15:03:39.467Z,0.62
2023-03-16T15:05:54.228Z,0.64
2023-03-16T15:08:08.771Z,0.65
2023-03-16T15:10:29.154Z,0.66
2023-03-16T15:12:42.670Z,0.68
2023-03-16T15:15:12.384Z,0.69
2023-03-16T15:17:26.241Z,0.80
2023-03-16T15:19:40.108Z,0.95
2023-03-16T15:21:53.131Z,1.09
2023-03-16T15:24:06.524Z,1.22
2023-03-16T15:26:24.928Z,1.34
2023-03-16T15:28:38.784Z,1.52
2023-03-16T15:30:54.021Z,1.70
2023-03-16T15:33:07.522Z,1.83
2023-03-16T15:35:21.265Z,1.98
2023-03-16T15:37:35.814Z,2.15
2023-03-16T15:39:50.920Z,2.33
2023-03-16T15:42:04.521Z,2.46
2023-03-16T15:44:18.362Z,2.59
2023-03-16T15:46:31.450Z,2.72
2023-03-16T15:48:45.596Z,2.84
2023-03-16T15:51:02.007Z,2.96
2023-03-16T15:53:30.214Z,3.07
2023-03-16T15:55:46.149Z,3.18
2023-03-16T15:58:04.108Z,3.25
2023-03-16T16:00:33.135Z,3.34
2023-03-16T16:02:46.530Z,3.43
2023-03-16T16:04:59.478Z,3.52
2023-03-16T16:07:16.277Z,3.60
2023-03-16T16:09:29.918Z,3.68
2023-03-16T16:11:43.350Z,3.74
2023-03-16T16:13:58.010Z,3.82
2023-03-16T16:16:12.861Z,3.90
2023-03-16T16:18:42.311Z,3.98
2023-03-16T16:20:55.862Z,4.07
2023-03-16T16:23:15.440Z,4.17
2023-03-16T16:25:31.797Z,4.27
2023-03-16T16:27:45.039Z,4.37
2023-03-16T16:29:58.408Z,4.47
2023-03-16T16:32:27.964Z,4.56
2023-03-16T16:34:41.355Z,4.65
2023-03-16T16:36:54.512Z,4.75
2023-03-16T16:39:07.530Z,4.85
2023-03-16T16:41:29.684Z,4.93
2023-03-16T16:43:44.981Z,5.03
2023-03-16T16:45:58.695Z,5.11
2023-03-16T16:48:30.793Z,5.17
2023-03-16T16:50:43.696Z,5.27
2023-03-16T16:52:58.680Z,5.35
2023-03-16T16:55:12.357Z,5.43
2023-03-16T16:57:26.384Z,5.52
2023-03-16T16:59:40.798Z,5.59
2023-03-16T17:01:55.555Z,5.67
2023-03-16T17:04:15.356Z,5.75
2023-03-16T17:06:29.056Z,5.84
2023-03-16T17:08:41.876Z,5.94
2023-03-16T17:10:56.266Z,6.03
2023-03-16T17:13:10.375Z,6.15
2023-03-16T17:15:29.096Z,6.25
2023-03-16T17:17:42.535Z,6.37
2023-03-16T17:19:56.484Z,6.48
2023-03-16T17:22:20.767Z,6.56
2023-03-16T17:24:34.186Z,6.63
2023-03-16T17:26:49.369Z,6.71
2023-03-16T17:29:04.967Z,6.81
2023-03-16T17:31:22.630Z,6.91
2023-03-16T17:33:35.578Z,7.01
2023-03-16T17:35:48.427Z,7.11
2023-03-16T17:38:01.398Z,7.19
2023-03-16T17:40:22.316Z,7.27
2023-03-16T17:42:35.348Z,7.37
2023-03-16T17:44:50.673Z,7.47
2023-03-16T17:47:04.007Z,7.58
2023-03-16T17:49:21.137Z,7.68
2023-03-16T17:51:35.816Z,7.79
2023-03-16T17:53:49.624Z,7.85
2023-03-16T17:56:06.222Z,7.93
2023-03-16T17:58:29.047Z,8.01
2023-03-16T18:00:43.541Z,8.09
2023-03-16T18:03:00.029Z,8.14
2023-03-16T18:05:22.118Z,8.20
2023-03-16T18:07:35.037Z,8.24
2023-03-16T18:09:49.034Z,8.27
2023-03-16T18:12:02.370Z,8.30
2023-03-16T18:14:26.920Z,8.37
2023-03-16T18:16:40.538Z,8.46
2023-03-16T18:18:55.102Z,8.50
2023-03-16T18:21:09.989Z,8.56
2023-03-16T18:23:26.286Z,8.63
2023-03-16T18:25:41.396Z,8.72
2023-03-16T18:27:54.379Z,8.81
2023-03-16T18:30:07.882Z,8.90
2023-03-16T18:32:27.552Z,8.99
2023-03-16T18:34:40.558Z,9.06
2023-03-16T18:36:54.655Z,9.13
2023-03-16T18:39:09.819Z,9.21
2023-03-16T18:41:25.686Z,9.30
2023-03-16T18:43:39.179Z,9.41
2023-03-16T18:45:54.847Z,9.50
2023-03-16T18:48:08.623Z,9.60
2023-03-16T18:50:31.350Z,9.69
2023-03-16T18:52:42.421Z,9.82
2023-03-16T18:54:56.839Z,9.92
2023-03-16T18:57:19.816Z,10.04
2023-03-16T18:59:32.562Z,10.17
2023-03-16T19:01:48.382Z,10.28
2023-03-16T19:04:02.751Z,10.38
2023-03-16T19:06:23.001Z,10.43
2023-03-16T19:08:35.951Z,10.48
2023-03-16T19:10:52.760Z,10.50
2023-03-16T19:13:06.106Z,10.49
2023-03-16T19:15:26.137Z,10.50
2023-03-16T19:17:39.547Z,10.54
2023-03-16T19:19:52.654Z,10.58
2023-03-16T19:22:10.925Z,10.64
2023-03-16T19:24:30.096Z,10.70
2023-03-16T19:26:43.555Z,10.71
2023-03-16T19:28:56.764Z,10.74
2023-03-16T19:31:17.669Z,10.79
2023-03-16T19:33:32.278Z,10.85
2023-03-16T19:35:51.847Z,10.96
2023-03-16T19:38:05.576Z,11.01
2023-03-16T19:40:21.010Z,11.05
2023-03-16T19:42:37.477Z,11.08
2023-03-16T19:44:51.908Z,11.10
2023-03-16T19:47:05.869Z,11.14
2023-03-16T19:49:23.119Z,11.16
2023-03-16T19:51:36.680Z,11.17
2023-03-16T19:53:50.912Z,11.20
2023-03-16T19:56:04.939Z,11.22
2023-03-16T19:58:26.652Z,11.24
2023-03-16T20:00:39.993Z,11.26
2023-03-16T20:02:57.949Z,11.26
2023-03-16T20:05:19.271Z,11.28
2023-03-16T20:07:32.195Z,11.30
2023-03-16T20:09:45.119Z,11.30
2023-03-16T20:11:58.189Z,11.31
2023-03-16T20:14:17.949Z,11.31
2023-03-16T20:16:33.330Z,11.34
2023-03-16T20:18:46.755Z,11.37
2023-03-16T20:20:59.629Z,11.42
2023-03-16T20:23:22.308Z,11.44
2023-03-16T20:25:37.960Z,11.47
2023-03-16T20:27:58.498Z,11.50
2023-03-16T20:30:21.544Z,11.55
2023-03-16T20:32:40.932Z,11.58
2023-03-16T20:34:55.136Z,11.62
2023-03-16T20:37:12.387Z,11.67
2023-03-16T20:39:25.404Z,11.76
2023-03-16T20:41:39.949Z,11.80
2023-03-16T20:43:53.277Z,11.79
2023-03-16T20:46:06.981Z,11.73
2023-03-16T20:48:22.044Z,11.72
2023-03-16T20:50:35.812Z,11.76
2023-03-16T20:52:49.077Z,11.80
2023-03-16T20:55:02.630Z,11.84
2023-03-16T20:57:22.486Z,11.77
2023-03-16T20:59:36.060Z,11.65
2023-03-16T21:01:49.170Z,11.61
2023-03-16T21:04:01.974Z,11.61
2023-03-16T21:06:25.019Z,11.57
2023-03-16T21:08:37.925Z,11.52
2023-03-16T21:10:52.908Z,11.44
2023-03-16T21:13:06.336Z,11.42
2023-03-16T21:15:28.623Z,11.38
2023-03-16T21:17:43.966Z,11.32
2023-03-16T21:19:57.688Z,11.28
2023-03-16T21:22:22.051Z,11.27
2023-03-16T21:24:35.525Z,11.34
2023-03-16T21:26:49.305Z,11.36
2023-03-16T21:29:05.377Z,11.31
2023-03-16T21:31:22.033Z,11.30
2023-03-16T21:33:38.328Z,11.35
2023-03-16T21:35:51.194Z,11.40
2023-03-16T21:38:05.317Z,11.51
2023-03-16T21:40:25.028Z,11.65
2023-03-16T21:42:38.187Z,11.71
2023-03-16T21:44:51.871Z,11.67
2023-03-16T21:47:05.018Z,11.71
2023-03-16T21:49:19.145Z,11.78
2023-03-16T21:51:34.707Z,11.84
2023-03-16T21:53:49.007Z,11.87
2023-03-16T21:56:02.726Z,11.86
2023-03-16T21:58:18.363Z,11.87
2023-03-16T22:00:34.535Z,11.90
2023-03-16T22:02:47.503Z,11.93
2023-03-16T22:05:01.954Z,12.00
2023-03-16T22:07:18.818Z,12.09
2023-03-16T22:09:34.041Z,12.22
2023-03-16T22:11:47.665Z,12.33
2023-03-16T22:14:02.592Z,12.41
2023-03-16T22:16:21.175Z,12.49
2023-03-16T22:18:40.236Z,12.53
2023-03-16T22:20:53.944Z,12.67
2023-03-16T22:23:07.702Z,12.75
2023-03-16T22:25:23.295Z,12.81
2023-03-16T22:27:36.314Z,12.85
2023-03-16T22:29:51.170Z,12.90
2023-03-16T22:32:06.765Z,12.92
2023-03-16T22:34:28.677Z,12.95
2023-03-16T22:36:41.804Z,13.00
2023-03-16T22:38:58.837Z,13.03
2023-03-16T22:41:15.788Z,13.07
2023-03-16T22:43:38.468Z,13.10
2023-03-16T22:45:51.676Z,13.12
2023-03-16T22:48:06.036Z,13.15
2023-03-16T22:50:25.489Z,13.19
2023-03-16T22:52:40.837Z,13.24
2023-03-16T22:54:53.787Z,13.25
2023-03-16T22:57:06.901Z,13.23
2023-03-16T22:59:24.390Z,13.20
2023-03-16T23:01:42.260Z,13.20
2023-03-16T23:03:56.229Z,13.22
2023-03-16T23:06:10.140Z,13.25
2023-03-16T23:08:25.165Z,13.34
2023-03-16T23:10:38.341Z,13.39
2023-03-16T23:12:52.464Z,13.41
2023-03-16T23:15:06.602Z,13.43
2023-03-16T23:17:23.277Z,13.48
2023-03-16T23:19:38.710Z,13.52
2023-03-16T23:21:52.131Z,13.54
2023-03-16T23:24:05.575Z,13.53
2023-03-16T23:26:29.243Z,13.57
2023-03-16T23:28:42.911Z,13.58
2023-03-16T23:30:56.645Z,13.57
2023-03-16T23:33:11.007Z,13.57
2023-03-16T23:35:27.031Z,13.62
2023-03-16T23:37:40.259Z,13.70
2023-03-16T23:39:53.671Z,13.74
2023-03-16T23:42:07.430Z,13.72
2023-03-16T23:44:24.657Z,13.64
2023-03-16T23:46:37.936Z,13.61
2023-03-16T23:48:52.601Z,13.55
2023-03-16T23:51:06.661Z,13.48
2023-03-16T23:53:22.751Z,13.41
2023-03-16T23:55:35.710Z,13.37
2023-03-16T23:57:52.354Z,13.34
